This is the latest recevied weather packets stored in our database for station/object CQ0XBF-11. If no packets are shown the sender has not sent any weather packets the latest 1 day(s).
| Time | Temp. | Humidity | Pressure | Rain* | Wind** | Luminosity | Snow |
|---|---|---|---|---|---|---|---|
| 1778050599 | 18.33° C | 59% | - | 0 mm | 0 m/s | - | - |
| 1778050565 | 18.33° C | 59% | - | 0 mm | 0 m/s | - | - |
| 1778050486 | 18.33° C | 61% | - | 0 mm | 0 m/s | - | - |
| 1778050443 | 18.33° C | 61% | - | 0 mm | 0 m/s | - | - |
| 1778050320 | 18.33° C | 64% | - | 0 mm | 0 m/s | - | - |
| 1778050197 | 18.33° C | 66% | - | 0 mm | 0 m/s | - | - |
| 1778050114 | 17.22° C | 69% | - | 0 mm | 0 m/s | - | - |
| 1778050076 | 17.22° C | 69% | - | 0 mm | 0 m/s | - | - |
| 1778049954 | 16.67° C | 72% | - | 0 mm | 0 m/s | - | - |
| 1778049833 | 16.11° C | 76% | - | 0 mm | 0 m/s | - | - |
| 1778049753 | 15.56° C | 79% | - | 0 mm | 0 m/s | - | - |
| 1778049712 | 15.56° C | 79% | - | 0 mm | 0 m/s | - | - |
| 1778049590 | 14.44° C | 83% | - | 0 mm | 0 m/s | - | - |
| 1778049468 | 13.89° C | 88% | - | 0 mm | 0 m/s | - | - |
| 1778049346 | 12.78° C | 91% | - | 0 mm | 0 m/s | - | - |
| 1778049267 | 12.22° C | 92% | - | 0 mm | 0 m/s | - | - |
| 1778049225 | 12.22° C | 92% | - | 0 mm | 0 m/s | - | - |
| 1778049103 | 11.67° C | 91% | - | 0 mm | 0 m/s | - | - |
| 1778048982 | 11.67° C | 91% | - | 0 mm | 0 m/s | - | - |
| 1778048897 | 11.11° C | 91% | - | 0 mm | 0 m/s | - | - |
| 1778048860 | 11.11° C | 91% | - | 0 mm | 0 m/s | - | - |
| 1778048739 | 11.11° C | 91% | - | 0 mm | 0 m/s | - | - |
| 1778048617 | 11.11° C | 91% | - | 0 mm | 0 m/s | - | - |
| 1778048531 | 11.11° C | 91% | - | 0 mm | 0 m/s | - | - |
| 1778048496 | 11.11° C | 91% | - | 0 mm | 0 m/s | - | - |
* Rain since midnight (hover to see other rain measurements)
** Current wind speed in m/s (hover to see current wind gust speed)